sensor_id;sensor_type;location;lat;lon;timestamp;P1;durP1;ratioP1;P2;durP2;ratioP2
82248;SDS011;71851;49.092;18.918;2024-03-29T00:02:18;1.67;;;1.58;;
82248;SDS011;71851;49.092;18.918;2024-03-29T00:05:19;1.10;;;1.00;;
82248;SDS011;71851;49.092;18.918;2024-03-29T00:08:21;1.25;;;1.23;;
82248;SDS011;71851;49.092;18.918;2024-03-29T00:11:22;1.48;;;1.17;;
82248;SDS011;71851;49.092;18.918;2024-03-29T00:14:23;1.20;;;1.10;;
82248;SDS011;71851;49.092;18.918;2024-03-29T00:17:24;1.42;;;1.33;;
82248;SDS011;71851;49.092;18.918;2024-03-29T00:20:24;0.80;;;0.80;;
82248;SDS011;71851;49.092;18.918;2024-03-29T00:23:25;1.98;;;1.88;;
82248;SDS011;71851;49.092;18.918;2024-03-29T00:26:26;0.90;;;0.77;;
82248;SDS011;71851;49.092;18.918;2024-03-29T00:29:27;0.90;;;0.90;;
82248;SDS011;71851;49.092;18.918;2024-03-29T00:32:28;1.38;;;1.27;;
82248;SDS011;71851;49.092;18.918;2024-03-29T00:35:28;0.60;;;0.60;;
82248;SDS011;71851;49.092;18.918;2024-03-29T00:38:29;2.38;;;0.70;;
82248;SDS011;71851;49.092;18.918;2024-03-29T00:44:32;1.17;;;1.15;;
82248;SDS011;71851;49.092;18.918;2024-03-29T00:47:33;1.75;;;0.90;;
82248;SDS011;71851;49.092;18.918;2024-03-29T00:50:34;2.90;;;2.55;;
82248;SDS011;71851;49.092;18.918;2024-03-29T00:53:35;1.75;;;1.65;;
82248;SDS011;71851;49.092;18.918;2024-03-29T00:56:35;2.28;;;1.95;;
82248;SDS011;71851;49.092;18.918;2024-03-29T00:59:36;2.67;;;1.50;;
82248;SDS011;71851;49.092;18.918;2024-03-29T01:02:36;1.95;;;1.58;;
82248;SDS011;71851;49.092;18.918;2024-03-29T01:05:37;1.20;;;1.13;;
82248;SDS011;71851;49.092;18.918;2024-03-29T01:08:38;0.90;;;0.63;;
82248;SDS011;71851;49.092;18.918;2024-03-29T01:11:40;1.75;;;1.58;;
82248;SDS011;71851;49.092;18.918;2024-03-29T01:14:41;2.63;;;2.42;;
82248;SDS011;71851;49.092;18.918;2024-03-29T01:17:41;1.15;;;0.80;;
82248;SDS011;71851;49.092;18.918;2024-03-29T01:20:42;1.35;;;0.80;;
82248;SDS011;71851;49.092;18.918;2024-03-29T01:23:43;1.80;;;1.70;;
82248;SDS011;71851;49.092;18.918;2024-03-29T01:26:43;3.15;;;2.35;;
82248;SDS011;71851;49.092;18.918;2024-03-29T01:29:44;1.60;;;1.50;;
82248;SDS011;71851;49.092;18.918;2024-03-29T01:32:46;1.50;;;1.40;;
82248;SDS011;71851;49.092;18.918;2024-03-29T01:35:47;1.65;;;1.52;;
82248;SDS011;71851;49.092;18.918;2024-03-29T01:38:47;1.45;;;1.30;;
82248;SDS011;71851;49.092;18.918;2024-03-29T01:41:49;2.22;;;1.48;;
82248;SDS011;71851;49.092;18.918;2024-03-29T01:44:50;1.80;;;1.70;;
82248;SDS011;71851;49.092;18.918;2024-03-29T01:47:51;1.35;;;1.25;;
82248;SDS011;71851;49.092;18.918;2024-03-29T01:50:53;1.50;;;1.40;;
82248;SDS011;71851;49.092;18.918;2024-03-29T01:53:58;1.52;;;1.42;;
82248;SDS011;71851;49.092;18.918;2024-03-29T01:56:58;1.85;;;1.23;;
82248;SDS011;71851;49.092;18.918;2024-03-29T01:59:59;1.65;;;1.55;;
82248;SDS011;71851;49.092;18.918;2024-03-29T02:03:01;1.92;;;1.83;;
82248;SDS011;71851;49.092;18.918;2024-03-29T02:06:04;2.53;;;1.42;;
82248;SDS011;71851;49.092;18.918;2024-03-29T02:12:12;1.98;;;1.73;;
82248;SDS011;71851;49.092;18.918;2024-03-29T02:15:15;1.13;;;1.02;;
82248;SDS011;71851;49.092;18.918;2024-03-29T02:18:16;1.35;;;1.25;;
82248;SDS011;71851;49.092;18.918;2024-03-29T02:21:17;1.58;;;1.30;;
82248;SDS011;71851;49.092;18.918;2024-03-29T02:24:18;1.27;;;1.20;;
82248;SDS011;71851;49.092;18.918;2024-03-29T02:27:20;1.58;;;1.48;;
82248;SDS011;71851;49.092;18.918;2024-03-29T02:30:21;1.35;;;1.25;;
82248;SDS011;71851;49.092;18.918;2024-03-29T02:33:22;1.88;;;1.70;;
82248;SDS011;71851;49.092;18.918;2024-03-29T02:36:23;1.60;;;1.48;;
82248;SDS011;71851;49.092;18.918;2024-03-29T02:39:23;1.73;;;1.63;;
82248;SDS011;71851;49.092;18.918;2024-03-29T02:42:24;1.13;;;1.02;;
82248;SDS011;71851;49.092;18.918;2024-03-29T02:45:24;2.42;;;2.33;;
82248;SDS011;71851;49.092;18.918;2024-03-29T02:48:25;2.40;;;1.88;;
82248;SDS011;71851;49.092;18.918;2024-03-29T02:51:28;2.28;;;2.17;;
82248;SDS011;71851;49.092;18.918;2024-03-29T02:54:28;1.98;;;1.88;;
82248;SDS011;71851;49.092;18.918;2024-03-29T02:57:29;2.08;;;1.23;;
82248;SDS011;71851;49.092;18.918;2024-03-29T03:00:30;4.63;;;1.50;;
82248;SDS011;71851;49.092;18.918;2024-03-29T03:03:31;1.55;;;1.45;;
82248;SDS011;71851;49.092;18.918;2024-03-29T03:06:32;1.63;;;1.52;;
82248;SDS011;71851;49.092;18.918;2024-03-29T03:09:32;1.13;;;0.80;;
82248;SDS011;71851;49.092;18.918;2024-03-29T03:12:52;1.60;;;1.50;;
82248;SDS011;71851;49.092;18.918;2024-03-29T03:15:52;2.83;;;2.67;;
82248;SDS011;71851;49.092;18.918;2024-03-29T03:18:52;1.88;;;1.75;;
82248;SDS011;71851;49.092;18.918;2024-03-29T03:21:53;1.20;;;1.15;;
82248;SDS011;71851;49.092;18.918;2024-03-29T03:24:53;2.13;;;2.03;;
82248;SDS011;71851;49.092;18.918;2024-03-29T03:27:54;2.15;;;2.05;;
82248;SDS011;71851;49.092;18.918;2024-03-29T03:30:55;1.80;;;1.70;;
82248;SDS011;71851;49.092;18.918;2024-03-29T03:33:55;2.30;;;1.73;;
82248;SDS011;71851;49.092;18.918;2024-03-29T03:36:56;1.73;;;1.63;;
82248;SDS011;71851;49.092;18.918;2024-03-29T03:39:56;2.13;;;2.00;;
82248;SDS011;71851;49.092;18.918;2024-03-29T03:42:58;3.50;;;2.03;;
82248;SDS011;71851;49.092;18.918;2024-03-29T03:46:01;2.10;;;1.90;;
82248;SDS011;71851;49.092;18.918;2024-03-29T03:49:02;2.40;;;2.05;;
82248;SDS011;71851;49.092;18.918;2024-03-29T03:52:03;1.88;;;1.77;;
82248;SDS011;71851;49.092;18.918;2024-03-29T03:55:04;1.92;;;1.83;;
82248;SDS011;71851;49.092;18.918;2024-03-29T03:58:04;1.85;;;1.75;;
82248;SDS011;71851;49.092;18.918;2024-03-29T04:01:05;2.25;;;1.33;;
82248;SDS011;71851;49.092;18.918;2024-03-29T04:04:06;2.47;;;2.17;;
82248;SDS011;71851;49.092;18.918;2024-03-29T04:07:06;3.67;;;2.03;;
82248;SDS011;71851;49.092;18.918;2024-03-29T04:10:07;2.25;;;2.05;;
82248;SDS011;71851;49.092;18.918;2024-03-29T04:13:08;2.35;;;2.13;;
82248;SDS011;71851;49.092;18.918;2024-03-29T04:16:08;2.47;;;2.28;;
82248;SDS011;71851;49.092;18.918;2024-03-29T04:19:09;3.15;;;2.13;;
82248;SDS011;71851;49.092;18.918;2024-03-29T04:22:09;2.88;;;2.47;;
82248;SDS011;71851;49.092;18.918;2024-03-29T04:25:11;1.48;;;1.35;;
82248;SDS011;71851;49.092;18.918;2024-03-29T04:28:12;4.78;;;3.63;;
82248;SDS011;71851;49.092;18.918;2024-03-29T04:31:13;3.38;;;2.60;;
82248;SDS011;71851;49.092;18.918;2024-03-29T04:34:14;3.13;;;2.92;;
82248;SDS011;71851;49.092;18.918;2024-03-29T04:37:14;1.98;;;1.50;;
82248;SDS011;71851;49.092;18.918;2024-03-29T04:40:15;2.78;;;2.58;;
82248;SDS011;71851;49.092;18.918;2024-03-29T04:43:19;2.20;;;2.10;;
82248;SDS011;71851;49.092;18.918;2024-03-29T04:46:21;1.92;;;1.83;;
82248;SDS011;71851;49.092;18.918;2024-03-29T04:49:23;1.95;;;1.85;;
82248;SDS011;71851;49.092;18.918;2024-03-29T04:52:33;1.90;;;1.80;;
82248;SDS011;71851;49.092;18.918;2024-03-29T04:55:34;2.75;;;2.55;;
82248;SDS011;71851;49.092;18.918;2024-03-29T04:58:36;2.15;;;2.03;;
82248;SDS011;71851;49.092;18.918;2024-03-29T05:01:37;2.03;;;1.70;;
82248;SDS011;71851;49.092;18.918;2024-03-29T05:04:37;2.88;;;2.65;;
82248;SDS011;71851;49.092;18.918;2024-03-29T05:07:38;3.40;;;3.10;;
82248;SDS011;71851;49.092;18.918;2024-03-29T05:10:39;2.83;;;2.63;;
82248;SDS011;71851;49.092;18.918;2024-03-29T05:13:40;2.65;;;1.75;;
82248;SDS011;71851;49.092;18.918;2024-03-29T05:16:46;2.40;;;2.22;;
82248;SDS011;71851;49.092;18.918;2024-03-29T05:19:47;2.50;;;2.30;;
82248;SDS011;71851;49.092;18.918;2024-03-29T05:22:49;4.68;;;2.13;;
82248;SDS011;71851;49.092;18.918;2024-03-29T05:25:50;3.03;;;2.72;;
82248;SDS011;71851;49.092;18.918;2024-03-29T05:28:52;4.93;;;1.52;;
82248;SDS011;71851;49.092;18.918;2024-03-29T05:31:56;1.80;;;1.70;;
82248;SDS011;71851;49.092;18.918;2024-03-29T05:34:56;2.97;;;2.67;;
82248;SDS011;71851;49.092;18.918;2024-03-29T05:37:57;3.35;;;3.10;;
82248;SDS011;71851;49.092;18.918;2024-03-29T05:40:58;2.75;;;2.53;;
82248;SDS011;71851;49.092;18.918;2024-03-29T05:43:59;3.42;;;2.95;;
82248;SDS011;71851;49.092;18.918;2024-03-29T05:46:59;2.17;;;2.00;;
82248;SDS011;71851;49.092;18.918;2024-03-29T05:50:00;3.17;;;2.88;;
82248;SDS011;71851;49.092;18.918;2024-03-29T05:53:00;3.25;;;2.92;;
82248;SDS011;71851;49.092;18.918;2024-03-29T05:56:01;3.13;;;2.80;;
82248;SDS011;71851;49.092;18.918;2024-03-29T05:59:01;3.38;;;3.10;;
82248;SDS011;71851;49.092;18.918;2024-03-29T06:02:04;3.45;;;3.15;;
82248;SDS011;71851;49.092;18.918;2024-03-29T06:05:05;3.28;;;2.97;;
82248;SDS011;71851;49.092;18.918;2024-03-29T06:08:06;2.58;;;2.47;;
82248;SDS011;71851;49.092;18.918;2024-03-29T06:11:08;3.78;;;3.58;;
82248;SDS011;71851;49.092;18.918;2024-03-29T06:14:08;3.03;;;2.83;;
82248;SDS011;71851;49.092;18.918;2024-03-29T06:17:09;3.15;;;2.72;;
82248;SDS011;71851;49.092;18.918;2024-03-29T06:20:25;4.25;;;3.95;;
82248;SDS011;71851;49.092;18.918;2024-03-29T06:23:26;6.72;;;6.43;;
82248;SDS011;71851;49.092;18.918;2024-03-29T06:26:27;10.55;;;9.82;;
82248;SDS011;71851;49.092;18.918;2024-03-29T06:29:27;8.25;;;7.85;;
82248;SDS011;71851;49.092;18.918;2024-03-29T06:32:28;8.85;;;8.35;;
82248;SDS011;71851;49.092;18.918;2024-03-29T06:35:29;8.85;;;8.45;;
82248;SDS011;71851;49.092;18.918;2024-03-29T06:38:29;7.40;;;7.05;;
82248;SDS011;71851;49.092;18.918;2024-03-29T06:41:30;9.20;;;8.80;;
82248;SDS011;71851;49.092;18.918;2024-03-29T06:44:30;5.78;;;5.47;;
82248;SDS011;71851;49.092;18.918;2024-03-29T06:47:31;6.05;;;5.75;;
82248;SDS011;71851;49.092;18.918;2024-03-29T06:50:32;5.32;;;5.13;;
82248;SDS011;71851;49.092;18.918;2024-03-29T06:53:33;4.75;;;4.53;;
82248;SDS011;71851;49.092;18.918;2024-03-29T06:56:33;6.40;;;6.10;;
82248;SDS011;71851;49.092;18.918;2024-03-29T06:59:34;5.28;;;5.07;;
82248;SDS011;71851;49.092;18.918;2024-03-29T07:02:35;3.17;;;2.97;;
82248;SDS011;71851;49.092;18.918;2024-03-29T07:05:35;5.10;;;4.82;;
82248;SDS011;71851;49.092;18.918;2024-03-29T07:08:36;5.25;;;4.95;;
82248;SDS011;71851;49.092;18.918;2024-03-29T07:11:36;4.65;;;4.45;;
82248;SDS011;71851;49.092;18.918;2024-03-29T07:14:37;6.30;;;6.00;;
82248;SDS011;71851;49.092;18.918;2024-03-29T07:18:36;4.38;;;4.07;;
82248;SDS011;71851;49.092;18.918;2024-03-29T07:22:35;5.63;;;5.22;;
82248;SDS011;71851;49.092;18.918;2024-03-29T07:25:36;2.88;;;2.67;;
82248;SDS011;71851;49.092;18.918;2024-03-29T07:28:36;5.03;;;4.82;;
82248;SDS011;71851;49.092;18.918;2024-03-29T07:31:37;5.32;;;5.03;;
82248;SDS011;71851;49.092;18.918;2024-03-29T07:34:38;5.20;;;4.88;;
82248;SDS011;71851;49.092;18.918;2024-03-29T07:37:40;3.75;;;3.55;;
82248;SDS011;71851;49.092;18.918;2024-03-29T07:40:51;5.13;;;4.72;;
82248;SDS011;71851;49.092;18.918;2024-03-29T07:43:53;4.18;;;3.97;;
82248;SDS011;71851;49.092;18.918;2024-03-29T07:46:59;5.05;;;4.75;;
82248;SDS011;71851;49.092;18.918;2024-03-29T07:49:59;4.57;;;4.38;;
82248;SDS011;71851;49.092;18.918;2024-03-29T07:53:00;4.45;;;4.25;;
82248;SDS011;71851;49.092;18.918;2024-03-29T07:56:00;4.85;;;4.65;;
82248;SDS011;71851;49.092;18.918;2024-03-29T07:59:01;4.20;;;4.00;;
82248;SDS011;71851;49.092;18.918;2024-03-29T08:02:02;4.13;;;3.83;;
82248;SDS011;71851;49.092;18.918;2024-03-29T08:05:02;2.47;;;2.38;;
82248;SDS011;71851;49.092;18.918;2024-03-29T08:08:04;5.30;;;5.00;;
82248;SDS011;71851;49.092;18.918;2024-03-29T08:11:05;5.28;;;4.97;;
82248;SDS011;71851;49.092;18.918;2024-03-29T08:14:07;3.78;;;3.58;;
82248;SDS011;71851;49.092;18.918;2024-03-29T08:17:08;4.32;;;4.13;;
82248;SDS011;71851;49.092;18.918;2024-03-29T08:20:09;4.03;;;3.75;;
82248;SDS011;71851;49.092;18.918;2024-03-29T08:23:10;4.47;;;4.07;;
82248;SDS011;71851;49.092;18.918;2024-03-29T08:26:10;4.40;;;4.20;;
82248;SDS011;71851;49.092;18.918;2024-03-29T08:29:12;4.13;;;3.92;;
82248;SDS011;71851;49.092;18.918;2024-03-29T08:32:13;4.22;;;3.85;;
82248;SDS011;71851;49.092;18.918;2024-03-29T08:35:13;2.42;;;1.65;;
82248;SDS011;71851;49.092;18.918;2024-03-29T08:38:14;4.35;;;3.83;;
82248;SDS011;71851;49.092;18.918;2024-03-29T08:41:16;4.07;;;3.78;;
82248;SDS011;71851;49.092;18.918;2024-03-29T08:44:16;4.20;;;3.90;;
82248;SDS011;71851;49.092;18.918;2024-03-29T08:47:17;2.33;;;2.13;;
82248;SDS011;71851;49.092;18.918;2024-03-29T08:50:17;3.83;;;3.63;;
82248;SDS011;71851;49.092;18.918;2024-03-29T08:53:18;4.72;;;4.53;;
82248;SDS011;71851;49.092;18.918;2024-03-29T08:56:18;3.92;;;3.75;;
82248;SDS011;71851;49.092;18.918;2024-03-29T08:59:19;3.88;;;3.67;;
82248;SDS011;71851;49.092;18.918;2024-03-29T09:02:19;4.25;;;4.05;;
82248;SDS011;71851;49.092;18.918;2024-03-29T09:05:20;3.55;;;3.35;;
82248;SDS011;71851;49.092;18.918;2024-03-29T09:08:22;4.05;;;3.85;;
82248;SDS011;71851;49.092;18.918;2024-03-29T09:11:23;3.67;;;3.47;;
82248;SDS011;71851;49.092;18.918;2024-03-29T09:14:23;3.50;;;3.40;;
82248;SDS011;71851;49.092;18.918;2024-03-29T09:17:24;3.72;;;3.58;;
82248;SDS011;71851;49.092;18.918;2024-03-29T09:20:25;4.47;;;4.28;;
82248;SDS011;71851;49.092;18.918;2024-03-29T09:23:26;4.93;;;4.72;;
82248;SDS011;71851;49.092;18.918;2024-03-29T09:26:31;4.20;;;4.00;;
82248;SDS011;71851;49.092;18.918;2024-03-29T09:29:33;4.60;;;3.83;;
82248;SDS011;71851;49.092;18.918;2024-03-29T09:32:34;4.30;;;4.10;;
82248;SDS011;71851;49.092;18.918;2024-03-29T09:35:36;4.38;;;4.07;;
82248;SDS011;71851;49.092;18.918;2024-03-29T09:38:37;1.67;;;1.58;;
82248;SDS011;71851;49.092;18.918;2024-03-29T09:41:37;4.50;;;4.30;;
82248;SDS011;71851;49.092;18.918;2024-03-29T09:44:40;4.45;;;4.10;;
82248;SDS011;71851;49.092;18.918;2024-03-29T09:47:43;3.60;;;3.35;;
82248;SDS011;71851;49.092;18.918;2024-03-29T09:50:44;3.90;;;3.70;;
82248;SDS011;71851;49.092;18.918;2024-03-29T09:53:44;3.70;;;3.50;;
82248;SDS011;71851;49.092;18.918;2024-03-29T09:56:46;3.72;;;3.60;;
82248;SDS011;71851;49.092;18.918;2024-03-29T09:59:47;3.70;;;3.50;;
82248;SDS011;71851;49.092;18.918;2024-03-29T10:02:49;1.80;;;1.70;;
82248;SDS011;71851;49.092;18.918;2024-03-29T10:05:53;2.88;;;2.78;;
82248;SDS011;71851;49.092;18.918;2024-03-29T10:08:55;3.75;;;3.55;;
82248;SDS011;71851;49.092;18.918;2024-03-29T10:11:58;4.22;;;4.03;;
82248;SDS011;71851;49.092;18.918;2024-03-29T10:14:58;3.92;;;3.72;;
82248;SDS011;71851;49.092;18.918;2024-03-29T10:18:11;3.40;;;3.20;;
82248;SDS011;71851;49.092;18.918;2024-03-29T10:21:12;3.50;;;3.35;;
82248;SDS011;71851;49.092;18.918;2024-03-29T10:24:15;2.45;;;2.35;;
82248;SDS011;71851;49.092;18.918;2024-03-29T10:27:19;2.70;;;2.60;;
82248;SDS011;71851;49.092;18.918;2024-03-29T10:30:19;3.25;;;3.15;;
82248;SDS011;71851;49.092;18.918;2024-03-29T10:36:25;3.20;;;2.90;;
82248;SDS011;71851;49.092;18.918;2024-03-29T10:39:26;3.22;;;3.13;;
82248;SDS011;71851;49.092;18.918;2024-03-29T10:42:27;2.78;;;2.67;;
82248;SDS011;71851;49.092;18.918;2024-03-29T10:45:29;1.85;;;1.73;;
82248;SDS011;71851;49.092;18.918;2024-03-29T10:51:33;3.67;;;3.50;;
82248;SDS011;71851;49.092;18.918;2024-03-29T10:54:34;4.05;;;3.72;;
82248;SDS011;71851;49.092;18.918;2024-03-29T10:57:34;3.85;;;3.65;;
82248;SDS011;71851;49.092;18.918;2024-03-29T11:00:47;4.20;;;3.90;;
82248;SDS011;71851;49.092;18.918;2024-03-29T11:03:53;4.18;;;3.97;;
82248;SDS011;71851;49.092;18.918;2024-03-29T11:06:58;3.17;;;2.90;;
82248;SDS011;71851;49.092;18.918;2024-03-29T11:10:06;3.03;;;2.83;;
82248;SDS011;71851;49.092;18.918;2024-03-29T11:16:18;3.05;;;2.72;;
82248;SDS011;71851;49.092;18.918;2024-03-29T11:19:21;3.35;;;3.15;;
82248;SDS011;71851;49.092;18.918;2024-03-29T11:22:22;3.30;;;3.05;;
82248;SDS011;71851;49.092;18.918;2024-03-29T11:25:23;2.10;;;1.95;;
82248;SDS011;71851;49.092;18.918;2024-03-29T11:28:24;2.90;;;1.63;;
82248;SDS011;71851;49.092;18.918;2024-03-29T11:31:26;3.03;;;2.83;;
82248;SDS011;71851;49.092;18.918;2024-03-29T11:34:30;3.42;;;3.20;;
82248;SDS011;71851;49.092;18.918;2024-03-29T11:37:32;2.40;;;1.48;;
82248;SDS011;71851;49.092;18.918;2024-03-29T11:40:33;3.03;;;2.83;;
82248;SDS011;71851;49.092;18.918;2024-03-29T11:43:34;2.45;;;1.40;;
82248;SDS011;71851;49.092;18.918;2024-03-29T11:46:35;3.33;;;3.13;;
82248;SDS011;71851;49.092;18.918;2024-03-29T11:49:36;3.03;;;2.13;;
82248;SDS011;71851;49.092;18.918;2024-03-29T11:52:37;3.63;;;2.67;;
82248;SDS011;71851;49.092;18.918;2024-03-29T11:55:38;2.63;;;2.42;;
82248;SDS011;71851;49.092;18.918;2024-03-29T11:58:39;3.20;;;1.70;;
82248;SDS011;71851;49.092;18.918;2024-03-29T12:01:40;2.95;;;2.00;;
82248;SDS011;71851;49.092;18.918;2024-03-29T12:04:41;2.85;;;1.75;;
82248;SDS011;71851;49.092;18.918;2024-03-29T12:07:42;2.55;;;1.63;;
82248;SDS011;71851;49.092;18.918;2024-03-29T12:10:42;2.85;;;1.33;;
82248;SDS011;71851;49.092;18.918;2024-03-29T12:13:45;2.38;;;0.73;;
82248;SDS011;71851;49.092;18.918;2024-03-29T12:16:45;2.47;;;1.75;;
82248;SDS011;71851;49.092;18.918;2024-03-29T12:19:46;2.17;;;1.98;;
82248;SDS011;71851;49.092;18.918;2024-03-29T12:22:48;2.55;;;2.35;;
82248;SDS011;71851;49.092;18.918;2024-03-29T12:25:50;3.40;;;2.35;;
82248;SDS011;71851;49.092;18.918;2024-03-29T12:28:54;3.58;;;3.15;;
82248;SDS011;71851;49.092;18.918;2024-03-29T12:31:56;2.72;;;2.53;;
82248;SDS011;71851;49.092;18.918;2024-03-29T12:35:08;3.85;;;2.25;;
82248;SDS011;71851;49.092;18.918;2024-03-29T12:38:11;2.17;;;1.98;;
82248;SDS011;71851;49.092;18.918;2024-03-29T12:41:13;3.05;;;2.80;;
82248;SDS011;71851;49.092;18.918;2024-03-29T12:44:15;3.92;;;2.50;;
82248;SDS011;71851;49.092;18.918;2024-03-29T12:47:16;2.65;;;2.10;;
82248;SDS011;71851;49.092;18.918;2024-03-29T12:50:24;3.10;;;1.80;;
82248;SDS011;71851;49.092;18.918;2024-03-29T12:53:27;2.00;;;1.80;;
82248;SDS011;71851;49.092;18.918;2024-03-29T12:56:28;2.60;;;1.73;;
82248;SDS011;71851;49.092;18.918;2024-03-29T12:59:33;4.70;;;2.47;;
82248;SDS011;71851;49.092;18.918;2024-03-29T13:02:35;2.67;;;1.98;;
82248;SDS011;71851;49.092;18.918;2024-03-29T13:05:36;2.30;;;1.23;;
82248;SDS011;71851;49.092;18.918;2024-03-29T13:08:44;5.40;;;2.08;;
82248;SDS011;71851;49.092;18.918;2024-03-29T13:11:44;2.95;;;1.58;;
82248;SDS011;71851;49.092;18.918;2024-03-29T13:14:45;2.65;;;1.42;;
82248;SDS011;71851;49.092;18.918;2024-03-29T13:17:46;2.30;;;1.40;;
82248;SDS011;71851;49.092;18.918;2024-03-29T13:20:49;5.30;;;1.85;;
82248;SDS011;71851;49.092;18.918;2024-03-29T13:23:49;2.53;;;1.27;;
82248;SDS011;71851;49.092;18.918;2024-03-29T13:26:50;2.28;;;1.70;;
82248;SDS011;71851;49.092;18.918;2024-03-29T13:29:50;2.75;;;1.17;;
82248;SDS011;71851;49.092;18.918;2024-03-29T13:32:53;3.72;;;1.38;;
82248;SDS011;71851;49.092;18.918;2024-03-29T13:35:54;2.33;;;1.85;;
82248;SDS011;71851;49.092;18.918;2024-03-29T13:38:57;4.35;;;1.75;;
82248;SDS011;71851;49.092;18.918;2024-03-29T13:41:57;4.35;;;1.77;;
82248;SDS011;71851;49.092;18.918;2024-03-29T13:44:58;3.85;;;1.58;;
82248;SDS011;71851;49.092;18.918;2024-03-29T13:47:59;2.25;;;1.55;;
82248;SDS011;71851;49.092;18.918;2024-03-29T13:50:59;2.35;;;1.63;;
82248;SDS011;71851;49.092;18.918;2024-03-29T13:54:00;3.58;;;1.67;;
82248;SDS011;71851;49.092;18.918;2024-03-29T13:57:00;2.63;;;1.23;;
82248;SDS011;71851;49.092;18.918;2024-03-29T14:00:01;2.88;;;1.83;;
82248;SDS011;71851;49.092;18.918;2024-03-29T14:03:02;1.58;;;1.15;;
82248;SDS011;71851;49.092;18.918;2024-03-29T14:06:03;2.90;;;1.35;;
82248;SDS011;71851;49.092;18.918;2024-03-29T14:09:05;2.95;;;1.67;;
82248;SDS011;71851;49.092;18.918;2024-03-29T14:12:05;3.17;;;1.10;;
82248;SDS011;71851;49.092;18.918;2024-03-29T14:15:06;2.58;;;1.17;;
82248;SDS011;71851;49.092;18.918;2024-03-29T14:18:08;3.65;;;1.40;;
82248;SDS011;71851;49.092;18.918;2024-03-29T14:21:08;2.83;;;1.50;;
82248;SDS011;71851;49.092;18.918;2024-03-29T14:24:09;4.38;;;1.85;;
82248;SDS011;71851;49.092;18.918;2024-03-29T14:27:09;3.95;;;0.80;;
82248;SDS011;71851;49.092;18.918;2024-03-29T14:30:10;4.20;;;1.40;;
82248;SDS011;71851;49.092;18.918;2024-03-29T14:33:11;4.55;;;1.95;;
82248;SDS011;71851;49.092;18.918;2024-03-29T14:36:12;3.38;;;1.67;;
82248;SDS011;71851;49.092;18.918;2024-03-29T14:39:13;4.50;;;1.65;;
82248;SDS011;71851;49.092;18.918;2024-03-29T14:42:13;1.77;;;0.98;;
82248;SDS011;71851;49.092;18.918;2024-03-29T14:45:17;6.85;;;1.50;;
82248;SDS011;71851;49.092;18.918;2024-03-29T14:48:18;6.47;;;1.25;;
82248;SDS011;71851;49.092;18.918;2024-03-29T14:51:19;5.70;;;1.88;;
82248;SDS011;71851;49.092;18.918;2024-03-29T14:54:19;1.70;;;1.33;;
82248;SDS011;71851;49.092;18.918;2024-03-29T14:57:20;2.47;;;1.60;;
82248;SDS011;71851;49.092;18.918;2024-03-29T15:00:22;4.15;;;1.90;;
82248;SDS011;71851;49.092;18.918;2024-03-29T15:03:24;5.05;;;1.90;;
82248;SDS011;71851;49.092;18.918;2024-03-29T15:06:25;3.47;;;1.60;;
82248;SDS011;71851;49.092;18.918;2024-03-29T15:09:25;7.25;;;1.67;;
82248;SDS011;71851;49.092;18.918;2024-03-29T15:12:26;2.63;;;1.40;;
82248;SDS011;71851;49.092;18.918;2024-03-29T15:15:27;5.97;;;1.60;;
82248;SDS011;71851;49.092;18.918;2024-03-29T15:18:27;5.53;;;1.88;;
82248;SDS011;71851;49.092;18.918;2024-03-29T15:21:28;4.90;;;2.05;;
82248;SDS011;71851;49.092;18.918;2024-03-29T15:24:28;3.42;;;2.25;;
82248;SDS011;71851;49.092;18.918;2024-03-29T15:27:29;2.65;;;1.98;;
82248;SDS011;71851;49.092;18.918;2024-03-29T15:30:48;4.40;;;1.85;;
82248;SDS011;71851;49.092;18.918;2024-03-29T15:33:54;5.88;;;2.15;;
82248;SDS011;71851;49.092;18.918;2024-03-29T15:36:54;8.57;;;3.75;;
82248;SDS011;71851;49.092;18.918;2024-03-29T15:39:55;4.30;;;2.28;;
82248;SDS011;71851;49.092;18.918;2024-03-29T15:42:56;6.03;;;2.08;;
82248;SDS011;71851;49.092;18.918;2024-03-29T15:45:57;5.38;;;2.15;;
82248;SDS011;71851;49.092;18.918;2024-03-29T15:48:58;5.53;;;2.63;;
82248;SDS011;71851;49.092;18.918;2024-03-29T15:51:59;3.50;;;1.67;;
82248;SDS011;71851;49.092;18.918;2024-03-29T15:55:00;4.50;;;1.80;;
82248;SDS011;71851;49.092;18.918;2024-03-29T15:58:00;7.53;;;3.00;;
82248;SDS011;71851;49.092;18.918;2024-03-29T16:01:01;5.53;;;3.00;;
82248;SDS011;71851;49.092;18.918;2024-03-29T16:04:07;5.20;;;2.53;;
82248;SDS011;71851;49.092;18.918;2024-03-29T16:07:09;4.78;;;2.13;;
82248;SDS011;71851;49.092;18.918;2024-03-29T16:10:10;4.10;;;1.77;;
82248;SDS011;71851;49.092;18.918;2024-03-29T16:13:10;3.42;;;1.85;;
82248;SDS011;71851;49.092;18.918;2024-03-29T16:16:11;4.93;;;1.77;;
82248;SDS011;71851;49.092;18.918;2024-03-29T16:19:11;8.00;;;1.73;;
82248;SDS011;71851;49.092;18.918;2024-03-29T16:22:12;5.88;;;2.15;;
82248;SDS011;71851;49.092;18.918;2024-03-29T16:25:14;5.93;;;2.22;;
82248;SDS011;71851;49.092;18.918;2024-03-29T16:28:15;5.72;;;2.58;;
82248;SDS011;71851;49.092;18.918;2024-03-29T16:31:17;3.50;;;1.55;;
82248;SDS011;71851;49.092;18.918;2024-03-29T16:34:17;4.80;;;2.00;;
82248;SDS011;71851;49.092;18.918;2024-03-29T16:37:18;6.47;;;2.08;;
82248;SDS011;71851;49.092;18.918;2024-03-29T16:40:18;3.55;;;2.28;;
82248;SDS011;71851;49.092;18.918;2024-03-29T16:43:19;5.13;;;1.75;;
82248;SDS011;71851;49.092;18.918;2024-03-29T16:46:19;6.93;;;2.72;;
82248;SDS011;71851;49.092;18.918;2024-03-29T16:49:21;5.57;;;2.10;;
82248;SDS011;71851;49.092;18.918;2024-03-29T16:52:21;3.28;;;2.33;;
82248;SDS011;71851;49.092;18.918;2024-03-29T16:55:22;4.82;;;2.72;;
82248;SDS011;71851;49.092;18.918;2024-03-29T16:58:23;6.60;;;3.40;;
82248;SDS011;71851;49.092;18.918;2024-03-29T17:01:25;6.32;;;4.03;;
82248;SDS011;71851;49.092;18.918;2024-03-29T17:04:26;5.22;;;3.13;;
82248;SDS011;71851;49.092;18.918;2024-03-29T17:07:27;6.15;;;3.47;;
82248;SDS011;71851;49.092;18.918;2024-03-29T17:10:28;9.88;;;3.35;;
82248;SDS011;71851;49.092;18.918;2024-03-29T17:13:29;3.22;;;2.50;;
82248;SDS011;71851;49.092;18.918;2024-03-29T17:16:29;4.57;;;2.65;;
82248;SDS011;71851;49.092;18.918;2024-03-29T17:19:30;4.50;;;2.10;;
82248;SDS011;71851;49.092;18.918;2024-03-29T17:22:32;7.88;;;3.20;;
82248;SDS011;71851;49.092;18.918;2024-03-29T17:25:33;2.97;;;2.00;;
82248;SDS011;71851;49.092;18.918;2024-03-29T17:28:33;7.68;;;2.30;;
82248;SDS011;71851;49.092;18.918;2024-03-29T17:31:34;5.20;;;2.88;;
82248;SDS011;71851;49.092;18.918;2024-03-29T17:34:39;7.00;;;3.08;;
82248;SDS011;71851;49.092;18.918;2024-03-29T17:37:40;5.75;;;1.83;;
82248;SDS011;71851;49.092;18.918;2024-03-29T17:40:40;7.93;;;3.50;;
82248;SDS011;71851;49.092;18.918;2024-03-29T17:46:43;9.43;;;4.82;;
82248;SDS011;71851;49.092;18.918;2024-03-29T17:49:46;11.90;;;5.28;;
82248;SDS011;71851;49.092;18.918;2024-03-29T17:52:47;13.23;;;6.20;;
82248;SDS011;71851;49.092;18.918;2024-03-29T17:55:47;10.57;;;4.07;;
82248;SDS011;71851;49.092;18.918;2024-03-29T17:58:48;7.72;;;2.85;;
82248;SDS011;71851;49.092;18.918;2024-03-29T18:01:49;7.78;;;2.92;;
82248;SDS011;71851;49.092;18.918;2024-03-29T18:04:50;8.15;;;3.47;;
82248;SDS011;71851;49.092;18.918;2024-03-29T18:07:50;5.13;;;2.10;;
82248;SDS011;71851;49.092;18.918;2024-03-29T18:10:51;7.97;;;3.47;;
82248;SDS011;71851;49.092;18.918;2024-03-29T18:13:51;5.88;;;2.00;;
82248;SDS011;71851;49.092;18.918;2024-03-29T18:16:54;5.72;;;2.45;;